sensor_id;sensor_type;location;lat;lon;timestamp;temperature;humidity
921;DHT22;447;51.332;6.778;2023-07-31T00:00:01;22.60;91.70
921;DHT22;447;51.332;6.778;2023-07-31T00:02:29;22.60;91.70
921;DHT22;447;51.332;6.778;2023-07-31T00:04:55;22.60;91.70
921;DHT22;447;51.332;6.778;2023-07-31T00:07:23;22.60;91.80
921;DHT22;447;51.332;6.778;2023-07-31T00:09:49;22.60;91.80
921;DHT22;447;51.332;6.778;2023-07-31T00:12:15;22.60;91.80
921;DHT22;447;51.332;6.778;2023-07-31T00:14:42;22.60;91.90
921;DHT22;447;51.332;6.778;2023-07-31T00:17:10;22.60;91.90
921;DHT22;447;51.332;6.778;2023-07-31T00:19:38;22.60;91.90
921;DHT22;447;51.332;6.778;2023-07-31T00:22:05;22.60;91.90
921;DHT22;447;51.332;6.778;2023-07-31T00:24:31;22.60;91.90
921;DHT22;447;51.332;6.778;2023-07-31T00:26:59;22.60;92.00
921;DHT22;447;51.332;6.778;2023-07-31T00:29:26;22.50;92.00
921;DHT22;447;51.332;6.778;2023-07-31T00:31:52;22.50;92.10
921;DHT22;447;51.332;6.778;2023-07-31T00:34:18;22.50;92.10
921;DHT22;447;51.332;6.778;2023-07-31T00:36:47;22.50;92.00
921;DHT22;447;51.332;6.778;2023-07-31T00:39:16;22.50;92.10
921;DHT22;447;51.332;6.778;2023-07-31T00:41:44;22.50;92.10
921;DHT22;447;51.332;6.778;2023-07-31T00:44:12;22.50;92.20
921;DHT22;447;51.332;6.778;2023-07-31T00:46:38;22.50;92.20
921;DHT22;447;51.332;6.778;2023-07-31T00:49:05;22.50;92.20
921;DHT22;447;51.332;6.778;2023-07-31T00:51:31;22.50;92.20
921;DHT22;447;51.332;6.778;2023-07-31T00:53:58;22.40;92.10
921;DHT22;447;51.332;6.778;2023-07-31T00:56:24;22.40;92.20
921;DHT22;447;51.332;6.778;2023-07-31T00:58:51;22.40;92.20
921;DHT22;447;51.332;6.778;2023-07-31T01:01:17;22.40;92.20
921;DHT22;447;51.332;6.778;2023-07-31T01:03:43;22.40;92.10
921;DHT22;447;51.332;6.778;2023-07-31T01:11:29;22.40;92.20
921;DHT22;447;51.332;6.778;2023-07-31T01:13:57;22.30;92.30
921;DHT22;447;51.332;6.778;2023-07-31T01:16:31;22.40;92.20
921;DHT22;447;51.332;6.778;2023-07-31T01:18:58;22.30;92.20
921;DHT22;447;51.332;6.778;2023-07-31T01:24:20;22.30;92.20
921;DHT22;447;51.332;6.778;2023-07-31T01:27:10;22.30;92.20
921;DHT22;447;51.332;6.778;2023-07-31T01:29:47;22.30;92.30
921;DHT22;447;51.332;6.778;2023-07-31T01:32:14;22.30;92.20
921;DHT22;447;51.332;6.778;2023-07-31T01:34:44;22.30;92.20
921;DHT22;447;51.332;6.778;2023-07-31T01:37:13;22.30;92.20
921;DHT22;447;51.332;6.778;2023-07-31T01:39:42;22.20;92.20
921;DHT22;447;51.332;6.778;2023-07-31T01:42:08;22.20;92.20
921;DHT22;447;51.332;6.778;2023-07-31T01:44:37;22.20;92.10
921;DHT22;447;51.332;6.778;2023-07-31T01:47:08;22.20;92.20
921;DHT22;447;51.332;6.778;2023-07-31T01:49:39;22.20;92.10
921;DHT22;447;51.332;6.778;2023-07-31T01:52:05;22.20;92.10
921;DHT22;447;51.332;6.778;2023-07-31T01:54:34;22.20;92.20
921;DHT22;447;51.332;6.778;2023-07-31T01:57:00;22.20;92.20
921;DHT22;447;51.332;6.778;2023-07-31T01:59:29;22.20;92.20
921;DHT22;447;51.332;6.778;2023-07-31T02:01:58;22.20;92.10
921;DHT22;447;51.332;6.778;2023-07-31T02:04:24;22.20;92.10
921;DHT22;447;51.332;6.778;2023-07-31T02:06:50;22.20;92.10
921;DHT22;447;51.332;6.778;2023-07-31T02:09:18;22.20;92.10
921;DHT22;447;51.332;6.778;2023-07-31T02:11:44;22.20;92.10
921;DHT22;447;51.332;6.778;2023-07-31T02:14:12;22.10;92.00
921;DHT22;447;51.332;6.778;2023-07-31T02:16:38;22.10;92.00
921;DHT22;447;51.332;6.778;2023-07-31T02:19:05;22.10;91.90
921;DHT22;447;51.332;6.778;2023-07-31T02:21:34;22.10;91.90
921;DHT22;447;51.332;6.778;2023-07-31T02:24:02;22.10;91.90
921;DHT22;447;51.332;6.778;2023-07-31T02:26:28;22.10;91.90
921;DHT22;447;51.332;6.778;2023-07-31T02:28:59;22.10;91.80
921;DHT22;447;51.332;6.778;2023-07-31T02:31:25;22.10;91.90
921;DHT22;447;51.332;6.778;2023-07-31T02:33:53;22.10;91.90
921;DHT22;447;51.332;6.778;2023-07-31T02:36:21;22.10;91.90
921;DHT22;447;51.332;6.778;2023-07-31T02:38:50;22.00;91.90
921;DHT22;447;51.332;6.778;2023-07-31T02:41:18;22.00;91.90
921;DHT22;447;51.332;6.778;2023-07-31T02:43:44;22.00;91.90
921;DHT22;447;51.332;6.778;2023-07-31T02:46:13;22.00;91.90
921;DHT22;447;51.332;6.778;2023-07-31T02:48:38;22.00;91.90
921;DHT22;447;51.332;6.778;2023-07-31T02:51:07;22.00;91.90
921;DHT22;447;51.332;6.778;2023-07-31T02:53:33;22.00;91.90
921;DHT22;447;51.332;6.778;2023-07-31T02:55:59;22.00;91.90
921;DHT22;447;51.332;6.778;2023-07-31T02:58:27;22.00;92.00
921;DHT22;447;51.332;6.778;2023-07-31T03:00:53;22.00;92.00
921;DHT22;447;51.332;6.778;2023-07-31T03:03:19;22.00;92.10
921;DHT22;447;51.332;6.778;2023-07-31T03:05:47;22.00;92.00
921;DHT22;447;51.332;6.778;2023-07-31T03:08:18;22.00;92.10
921;DHT22;447;51.332;6.778;2023-07-31T03:10:46;22.00;92.00
921;DHT22;447;51.332;6.778;2023-07-31T03:13:17;22.00;92.10
921;DHT22;447;51.332;6.778;2023-07-31T03:15:43;22.00;92.10
921;DHT22;447;51.332;6.778;2023-07-31T03:18:09;22.00;92.10
921;DHT22;447;51.332;6.778;2023-07-31T03:20:35;22.00;92.10
921;DHT22;447;51.332;6.778;2023-07-31T03:23:01;22.00;92.10
921;DHT22;447;51.332;6.778;2023-07-31T03:25:27;22.00;92.10
921;DHT22;447;51.332;6.778;2023-07-31T03:27:58;22.00;92.20
921;DHT22;447;51.332;6.778;2023-07-31T03:30:32;21.90;92.10
921;DHT22;447;51.332;6.778;2023-07-31T03:32:58;21.90;92.10
921;DHT22;447;51.332;6.778;2023-07-31T03:35:24;21.90;92.20
921;DHT22;447;51.332;6.778;2023-07-31T03:37:53;21.90;92.20
921;DHT22;447;51.332;6.778;2023-07-31T03:40:19;21.90;92.30
921;DHT22;447;51.332;6.778;2023-07-31T03:42:45;21.90;92.30
921;DHT22;447;51.332;6.778;2023-07-31T03:45:15;21.90;92.40
921;DHT22;447;51.332;6.778;2023-07-31T03:47:41;21.90;92.40
921;DHT22;447;51.332;6.778;2023-07-31T03:50:10;21.90;92.40
921;DHT22;447;51.332;6.778;2023-07-31T03:52:36;21.90;92.30
921;DHT22;447;51.332;6.778;2023-07-31T03:55:05;21.90;92.30
921;DHT22;447;51.332;6.778;2023-07-31T03:57:31;21.90;92.30
921;DHT22;447;51.332;6.778;2023-07-31T03:59:58;21.90;92.40
921;DHT22;447;51.332;6.778;2023-07-31T04:02:26;21.80;92.40
921;DHT22;447;51.332;6.778;2023-07-31T04:04:52;21.90;92.50
921;DHT22;447;51.332;6.778;2023-07-31T04:07:21;21.80;92.40
921;DHT22;447;51.332;6.778;2023-07-31T04:09:51;21.80;92.50
921;DHT22;447;51.332;6.778;2023-07-31T04:12:20;21.80;92.50
921;DHT22;447;51.332;6.778;2023-07-31T04:14:49;21.80;92.50
921;DHT22;447;51.332;6.778;2023-07-31T04:17:17;21.80;92.50
921;DHT22;447;51.332;6.778;2023-07-31T04:19:47;21.80;92.40
921;DHT22;447;51.332;6.778;2023-07-31T04:22:13;21.80;92.50
921;DHT22;447;51.332;6.778;2023-07-31T04:24:39;21.80;92.50
921;DHT22;447;51.332;6.778;2023-07-31T04:27:05;21.80;92.50
921;DHT22;447;51.332;6.778;2023-07-31T04:29:31;21.80;92.50
921;DHT22;447;51.332;6.778;2023-07-31T04:31:57;21.80;92.50
921;DHT22;447;51.332;6.778;2023-07-31T04:34:23;21.80;92.50
921;DHT22;447;51.332;6.778;2023-07-31T04:36:49;21.80;92.60
921;DHT22;447;51.332;6.778;2023-07-31T04:39:17;21.80;92.50
921;DHT22;447;51.332;6.778;2023-07-31T04:41:43;21.80;92.50
921;DHT22;447;51.332;6.778;2023-07-31T04:44:09;21.80;92.50
921;DHT22;447;51.332;6.778;2023-07-31T04:46:37;21.80;92.50
921;DHT22;447;51.332;6.778;2023-07-31T04:49:03;21.80;92.60
921;DHT22;447;51.332;6.778;2023-07-31T04:51:33;21.80;92.60
921;DHT22;447;51.332;6.778;2023-07-31T04:53:59;21.80;92.60
921;DHT22;447;51.332;6.778;2023-07-31T04:56:25;21.80;92.50
921;DHT22;447;51.332;6.778;2023-07-31T04:58:51;21.70;92.50
921;DHT22;447;51.332;6.778;2023-07-31T05:01:22;21.80;92.50
921;DHT22;447;51.332;6.778;2023-07-31T05:03:53;21.70;92.40
921;DHT22;447;51.332;6.778;2023-07-31T05:06:19;21.70;92.40
921;DHT22;447;51.332;6.778;2023-07-31T05:08:48;21.80;92.40
921;DHT22;447;51.332;6.778;2023-07-31T05:11:19;21.70;92.40
921;DHT22;447;51.332;6.778;2023-07-31T05:13:45;21.70;92.50
921;DHT22;447;51.332;6.778;2023-07-31T05:16:13;21.70;92.50
921;DHT22;447;51.332;6.778;2023-07-31T05:18:39;21.70;92.50
921;DHT22;447;51.332;6.778;2023-07-31T05:21:05;21.70;92.60
921;DHT22;447;51.332;6.778;2023-07-31T05:23:31;21.70;92.60
921;DHT22;447;51.332;6.778;2023-07-31T05:26:11;21.70;92.50
921;DHT22;447;51.332;6.778;2023-07-31T05:28:39;21.70;92.50
921;DHT22;447;51.332;6.778;2023-07-31T05:31:06;21.70;92.50
921;DHT22;447;51.332;6.778;2023-07-31T05:33:33;21.70;92.60
921;DHT22;447;51.332;6.778;2023-07-31T05:35:59;21.70;92.60
921;DHT22;447;51.332;6.778;2023-07-31T05:38:27;21.70;92.60
921;DHT22;447;51.332;6.778;2023-07-31T05:40:54;21.70;92.60
921;DHT22;447;51.332;6.778;2023-07-31T05:43:20;21.70;92.70
921;DHT22;447;51.332;6.778;2023-07-31T05:45:46;21.70;92.70
921;DHT22;447;51.332;6.778;2023-07-31T05:48:15;21.70;92.70
921;DHT22;447;51.332;6.778;2023-07-31T05:50:41;21.70;92.70
921;DHT22;447;51.332;6.778;2023-07-31T05:53:07;21.60;92.60
921;DHT22;447;51.332;6.778;2023-07-31T05:55:34;21.70;92.70
921;DHT22;447;51.332;6.778;2023-07-31T05:57:59;21.60;92.60
921;DHT22;447;51.332;6.778;2023-07-31T06:00:25;21.60;92.70
921;DHT22;447;51.332;6.778;2023-07-31T06:02:51;21.60;92.70
921;DHT22;447;51.332;6.778;2023-07-31T06:05:17;21.60;92.70
921;DHT22;447;51.332;6.778;2023-07-31T06:07:46;21.60;92.70
921;DHT22;447;51.332;6.778;2023-07-31T06:10:12;21.60;92.70
921;DHT22;447;51.332;6.778;2023-07-31T06:12:37;21.60;92.70
921;DHT22;447;51.332;6.778;2023-07-31T06:15:04;21.60;92.70
921;DHT22;447;51.332;6.778;2023-07-31T06:17:34;21.60;92.70
921;DHT22;447;51.332;6.778;2023-07-31T06:20:00;21.60;92.80
921;DHT22;447;51.332;6.778;2023-07-31T06:22:26;21.60;92.80
921;DHT22;447;51.332;6.778;2023-07-31T06:24:52;21.60;92.90
921;DHT22;447;51.332;6.778;2023-07-31T06:27:19;21.60;92.90
921;DHT22;447;51.332;6.778;2023-07-31T06:29:48;21.60;92.90
921;DHT22;447;51.332;6.778;2023-07-31T06:32:14;21.60;92.90
921;DHT22;447;51.332;6.778;2023-07-31T06:34:40;21.60;92.90
921;DHT22;447;51.332;6.778;2023-07-31T06:37:06;21.60;93.00
921;DHT22;447;51.332;6.778;2023-07-31T06:39:35;21.60;93.00
921;DHT22;447;51.332;6.778;2023-07-31T06:42:00;21.60;93.10
921;DHT22;447;51.332;6.778;2023-07-31T06:44:32;21.60;93.20
921;DHT22;447;51.332;6.778;2023-07-31T06:46:58;21.60;93.30
921;DHT22;447;51.332;6.778;2023-07-31T06:49:26;21.60;93.40
921;DHT22;447;51.332;6.778;2023-07-31T06:51:52;21.60;93.40
921;DHT22;447;51.332;6.778;2023-07-31T06:54:18;21.50;93.40
921;DHT22;447;51.332;6.778;2023-07-31T06:56:44;21.60;93.50
921;DHT22;447;51.332;6.778;2023-07-31T06:59:10;21.60;93.40
921;DHT22;447;51.332;6.778;2023-07-31T07:01:36;21.50;93.50
921;DHT22;447;51.332;6.778;2023-07-31T07:04:02;21.50;93.40
921;DHT22;447;51.332;6.778;2023-07-31T07:06:31;21.60;93.60
921;DHT22;447;51.332;6.778;2023-07-31T07:08:59;21.50;93.60
921;DHT22;447;51.332;6.778;2023-07-31T07:11:27;21.50;93.50
921;DHT22;447;51.332;6.778;2023-07-31T07:13:58;21.50;93.70
921;DHT22;447;51.332;6.778;2023-07-31T07:16:24;21.50;93.60
921;DHT22;447;51.332;6.778;2023-07-31T07:18:50;21.50;93.70
921;DHT22;447;51.332;6.778;2023-07-31T07:21:16;21.50;93.70
921;DHT22;447;51.332;6.778;2023-07-31T07:23:43;21.50;93.70
921;DHT22;447;51.332;6.778;2023-07-31T07:26:11;21.50;93.70
921;DHT22;447;51.332;6.778;2023-07-31T07:28:44;21.50;93.70
921;DHT22;447;51.332;6.778;2023-07-31T07:31:12;21.50;93.80
921;DHT22;447;51.332;6.778;2023-07-31T07:33:39;21.50;93.90
921;DHT22;447;51.332;6.778;2023-07-31T07:36:07;21.50;93.90
921;DHT22;447;51.332;6.778;2023-07-31T07:38:35;21.50;94.00
921;DHT22;447;51.332;6.778;2023-07-31T07:41:02;21.50;94.00
921;DHT22;447;51.332;6.778;2023-07-31T07:43:32;21.50;94.00
921;DHT22;447;51.332;6.778;2023-07-31T07:45:58;21.40;94.10
921;DHT22;447;51.332;6.778;2023-07-31T07:48:24;21.50;94.30
921;DHT22;447;51.332;6.778;2023-07-31T07:50:51;21.50;94.30
921;DHT22;447;51.332;6.778;2023-07-31T07:53:17;21.50;94.40
921;DHT22;447;51.332;6.778;2023-07-31T07:55:43;21.40;94.40
921;DHT22;447;51.332;6.778;2023-07-31T07:58:09;21.50;94.50
921;DHT22;447;51.332;6.778;2023-07-31T08:00:35;21.40;94.50
921;DHT22;447;51.332;6.778;2023-07-31T08:03:04;21.40;94.50
921;DHT22;447;51.332;6.778;2023-07-31T08:05:30;21.40;94.50
921;DHT22;447;51.332;6.778;2023-07-31T08:08:02;21.40;94.50
921;DHT22;447;51.332;6.778;2023-07-31T08:10:28;21.40;94.60
921;DHT22;447;51.332;6.778;2023-07-31T08:12:54;21.40;94.70
921;DHT22;447;51.332;6.778;2023-07-31T08:15:22;21.40;94.90
921;DHT22;447;51.332;6.778;2023-07-31T08:17:48;21.40;94.80
921;DHT22;447;51.332;6.778;2023-07-31T08:20:17;21.40;94.80
921;DHT22;447;51.332;6.778;2023-07-31T08:22:45;21.40;94.80
921;DHT22;447;51.332;6.778;2023-07-31T08:25:12;21.40;94.80
921;DHT22;447;51.332;6.778;2023-07-31T08:27:44;21.40;94.80
921;DHT22;447;51.332;6.778;2023-07-31T08:30:17;21.40;94.80
921;DHT22;447;51.332;6.778;2023-07-31T08:32:42;21.30;94.80
921;DHT22;447;51.332;6.778;2023-07-31T08:35:11;21.40;94.80
921;DHT22;447;51.332;6.778;2023-07-31T08:37:42;21.40;94.80
921;DHT22;447;51.332;6.778;2023-07-31T08:40:08;21.30;94.70
921;DHT22;447;51.332;6.778;2023-07-31T08:42:40;21.40;94.90
921;DHT22;447;51.332;6.778;2023-07-31T08:45:14;21.40;94.90
921;DHT22;447;51.332;6.778;2023-07-31T08:47:47;21.40;95.00
921;DHT22;447;51.332;6.778;2023-07-31T08:50:14;21.30;95.00
921;DHT22;447;51.332;6.778;2023-07-31T08:52:45;21.30;95.00
921;DHT22;447;51.332;6.778;2023-07-31T08:55:11;21.30;95.10
921;DHT22;447;51.332;6.778;2023-07-31T08:57:38;21.30;95.10
921;DHT22;447;51.332;6.778;2023-07-31T09:00:09;21.30;95.10
921;DHT22;447;51.332;6.778;2023-07-31T09:02:46;21.30;95.10
921;DHT22;447;51.332;6.778;2023-07-31T09:05:15;21.30;95.10
921;DHT22;447;51.332;6.778;2023-07-31T09:07:45;21.30;95.00
921;DHT22;447;51.332;6.778;2023-07-31T09:10:15;21.30;95.00
921;DHT22;447;51.332;6.778;2023-07-31T09:12:46;21.30;95.10
921;DHT22;447;51.332;6.778;2023-07-31T09:15:13;21.30;95.10
921;DHT22;447;51.332;6.778;2023-07-31T09:17:42;21.30;95.00
921;DHT22;447;51.332;6.778;2023-07-31T09:20:20;21.30;95.10
921;DHT22;447;51.332;6.778;2023-07-31T09:22:49;21.30;95.10
921;DHT22;447;51.332;6.778;2023-07-31T09:28:18;21.30;95.10
921;DHT22;447;51.332;6.778;2023-07-31T09:30:50;21.30;95.20
921;DHT22;447;51.332;6.778;2023-07-31T09:33:17;21.30;95.30
921;DHT22;447;51.332;6.778;2023-07-31T09:35:46;21.30;95.30
921;DHT22;447;51.332;6.778;2023-07-31T09:38:14;21.30;95.30
921;DHT22;447;51.332;6.778;2023-07-31T09:40:43;21.30;95.30
921;DHT22;447;51.332;6.778;2023-07-31T09:43:13;21.30;95.30
921;DHT22;447;51.332;6.778;2023-07-31T09:45:45;21.30;95.30
921;DHT22;447;51.332;6.778;2023-07-31T09:48:16;21.30;95.50
921;DHT22;447;51.332;6.778;2023-07-31T09:50:46;21.30;95.50
921;DHT22;447;51.332;6.778;2023-07-31T09:53:16;21.30;95.70
921;DHT22;447;51.332;6.778;2023-07-31T09:55:42;21.30;95.70
921;DHT22;447;51.332;6.778;2023-07-31T09:58:13;21.30;95.70
921;DHT22;447;51.332;6.778;2023-07-31T10:00:40;21.30;95.70
921;DHT22;447;51.332;6.778;2023-07-31T10:03:08;21.30;95.70
921;DHT22;447;51.332;6.778;2023-07-31T10:05:36;21.30;95.80
921;DHT22;447;51.332;6.778;2023-07-31T10:08:06;21.30;95.80
921;DHT22;447;51.332;6.778;2023-07-31T10:10:36;21.30;95.90
921;DHT22;447;51.332;6.778;2023-07-31T10:13:02;21.30;95.90
921;DHT22;447;51.332;6.778;2023-07-31T10:15:29;21.30;95.90
921;DHT22;447;51.332;6.778;2023-07-31T10:17:59;21.30;96.10
921;DHT22;447;51.332;6.778;2023-07-31T10:20:26;21.30;96.10
921;DHT22;447;51.332;6.778;2023-07-31T10:22:55;21.30;96.10
921;DHT22;447;51.332;6.778;2023-07-31T10:25:22;21.30;96.10
921;DHT22;447;51.332;6.778;2023-07-31T10:27:53;21.30;96.10
921;DHT22;447;51.332;6.778;2023-07-31T10:30:24;21.30;96.10
921;DHT22;447;51.332;6.778;2023-07-31T10:32:53;21.30;96.10
921;DHT22;447;51.332;6.778;2023-07-31T10:35:24;21.30;96.10
921;DHT22;447;51.332;6.778;2023-07-31T10:37:50;21.20;96.10
921;DHT22;447;51.332;6.778;2023-07-31T10:40:25;21.30;96.20
921;DHT22;447;51.332;6.778;2023-07-31T10:42:57;21.30;96.20
921;DHT22;447;51.332;6.778;2023-07-31T10:45:32;21.20;96.20
921;DHT22;447;51.332;6.778;2023-07-31T10:48:00;21.20;96.20
921;DHT22;447;51.332;6.778;2023-07-31T10:50:27;21.30;96.20
921;DHT22;447;51.332;6.778;2023-07-31T10:52:56;21.30;96.30
921;DHT22;447;51.332;6.778;2023-07-31T10:55:42;21.20;96.20
921;DHT22;447;51.332;6.778;2023-07-31T10:58:12;21.30;96.60
921;DHT22;447;51.332;6.778;2023-07-31T11:00:42;21.30;96.30
921;DHT22;447;51.332;6.778;2023-07-31T11:03:11;21.30;96.30
921;DHT22;447;51.332;6.778;2023-07-31T11:06:03;21.20;96.30
921;DHT22;447;51.332;6.778;2023-07-31T11:08:31;21.30;96.40
921;DHT22;447;51.332;6.778;2023-07-31T11:11:05;21.20;96.30
921;DHT22;447;51.332;6.778;2023-07-31T11:16:16;21.30;96.50
921;DHT22;447;51.332;6.778;2023-07-31T11:18:43;21.30;96.50
921;DHT22;447;51.332;6.778;2023-07-31T11:21:13;21.20;96.60
921;DHT22;447;51.332;6.778;2023-07-31T11:23:40;21.20;96.50
921;DHT22;447;51.332;6.778;2023-07-31T11:26:07;21.30;96.60
921;DHT22;447;51.332;6.778;2023-07-31T11:28:35;21.30;96.70
921;DHT22;447;51.332;6.778;2023-07-31T11:31:02;21.20;96.70
921;DHT22;447;51.332;6.778;2023-07-31T11:33:28;21.30;96.70
921;DHT22;447;51.332;6.778;2023-07-31T11:35:57;21.30;96.80
921;DHT22;447;51.332;6.778;2023-07-31T11:38:28;21.30;96.80
921;DHT22;447;51.332;6.778;2023-07-31T11:40:57;21.30;96.80
921;DHT22;447;51.332;6.778;2023-07-31T11:43:26;21.30;96.80
921;DHT22;447;51.332;6.778;2023-07-31T11:45:54;21.30;96.80
921;DHT22;447;51.332;6.778;2023-07-31T11:48:25;21.30;96.80
921;DHT22;447;51.332;6.778;2023-07-31T11:50:55;21.30;96.80
921;DHT22;447;51.332;6.778;2023-07-31T11:56:16;21.30;96.90
921;DHT22;447;51.332;6.778;2023-07-31T11:58:48;21.30;96.90
921;DHT22;447;51.332;6.778;2023-07-31T12:01:19;21.20;96.90
921;DHT22;447;51.332;6.778;2023-07-31T12:03:46;21.20;97.00
921;DHT22;447;51.332;6.778;2023-07-31T12:06:12;21.30;97.20
921;DHT22;447;51.332;6.778;2023-07-31T12:08:43;21.30;97.10
921;DHT22;447;51.332;6.778;2023-07-31T12:11:09;21.30;97.00
921;DHT22;447;51.332;6.778;2023-07-31T12:13:35;21.30;97.10
921;DHT22;447;51.332;6.778;2023-07-31T12:16:03;21.30;97.10
921;DHT22;447;51.332;6.778;2023-07-31T12:18:34;21.30;97.00
921;DHT22;447;51.332;6.778;2023-07-31T12:21:02;21.30;97.00
921;DHT22;447;51.332;6.778;2023-07-31T12:23:32;21.30;96.90
921;DHT22;447;51.332;6.778;2023-07-31T12:26:11;21.30;96.90
921;DHT22;447;51.332;6.778;2023-07-31T12:28:42;21.30;96.90
921;DHT22;447;51.332;6.778;2023-07-31T12:33:38;21.30;96.90
921;DHT22;447;51.332;6.778;2023-07-31T12:36:14;21.30;96.90
921;DHT22;447;51.332;6.778;2023-07-31T12:38:40;21.30;96.90
921;DHT22;447;51.332;6.778;2023-07-31T12:41:07;21.30;97.00
921;DHT22;447;51.332;6.778;2023-07-31T12:43:34;21.30;97.10
921;DHT22;447;51.332;6.778;2023-07-31T12:46:00;21.30;97.10
921;DHT22;447;51.332;6.778;2023-07-31T12:48:26;21.30;97.10
921;DHT22;447;51.332;6.778;2023-07-31T12:50:52;21.30;97.20
921;DHT22;447;51.332;6.778;2023-07-31T12:53:18;21.30;97.30
921;DHT22;447;51.332;6.778;2023-07-31T12:55:44;21.30;97.40
921;DHT22;447;51.332;6.778;2023-07-31T12:58:10;21.30;97.30
921;DHT22;447;51.332;6.778;2023-07-31T13:00:37;21.30;97.20
921;DHT22;447;51.332;6.778;2023-07-31T13:03:03;21.30;97.40
921;DHT22;447;51.332;6.778;2023-07-31T13:05:30;21.30;97.40
921;DHT22;447;51.332;6.778;2023-07-31T13:07:56;21.30;97.40
921;DHT22;447;51.332;6.778;2023-07-31T13:10:23;21.30;97.30
921;DHT22;447;51.332;6.778;2023-07-31T13:12:51;21.30;97.60
921;DHT22;447;51.332;6.778;2023-07-31T13:15:17;21.30;97.30
921;DHT22;447;51.332;6.778;2023-07-31T13:17:43;21.30;97.40
921;DHT22;447;51.332;6.778;2023-07-31T13:20:11;21.30;97.40
921;DHT22;447;51.332;6.778;2023-07-31T13:22:37;21.30;97.40
921;DHT22;447;51.332;6.778;2023-07-31T13:25:03;21.30;97.70
921;DHT22;447;51.332;6.778;2023-07-31T13:27:30;21.30;97.40
921;DHT22;447;51.332;6.778;2023-07-31T13:30:01;21.30;97.40
921;DHT22;447;51.332;6.778;2023-07-31T13:32:30;21.30;97.40
921;DHT22;447;51.332;6.778;2023-07-31T13:34:58;21.30;97.30
921;DHT22;447;51.332;6.778;2023-07-31T13:37:30;21.30;97.40
921;DHT22;447;51.332;6.778;2023-07-31T13:39:56;21.30;97.40
921;DHT22;447;51.332;6.778;2023-07-31T13:42:22;21.30;97.50
921;DHT22;447;51.332;6.778;2023-07-31T13:44:53;21.30;97.30
921;DHT22;447;51.332;6.778;2023-07-31T13:47:19;21.30;97.50
921;DHT22;447;51.332;6.778;2023-07-31T13:49:45;21.30;97.50
921;DHT22;447;51.332;6.778;2023-07-31T13:52:11;21.30;97.50
921;DHT22;447;51.332;6.778;2023-07-31T13:54:37;21.30;97.60
921;DHT22;447;51.332;6.778;2023-07-31T13:57:06;21.30;97.70
921;DHT22;447;51.332;6.778;2023-07-31T13:59:32;21.30;97.70
921;DHT22;447;51.332;6.778;2023-07-31T14:02:02;21.30;97.70
921;DHT22;447;51.332;6.778;2023-07-31T14:04:29;21.30;97.70
921;DHT22;447;51.332;6.778;2023-07-31T14:06:57;21.30;98.00
921;DHT22;447;51.332;6.778;2023-07-31T14:09:26;21.30;97.60
921;DHT22;447;51.332;6.778;2023-07-31T14:11:53;21.40;97.70
921;DHT22;447;51.332;6.778;2023-07-31T14:14:20;21.40;97.60
921;DHT22;447;51.332;6.778;2023-07-31T14:16:46;21.30;97.50
921;DHT22;447;51.332;6.778;2023-07-31T14:19:17;21.40;97.60
921;DHT22;447;51.332;6.778;2023-07-31T14:21:43;21.30;97.40
921;DHT22;447;51.332;6.778;2023-07-31T14:24:09;21.40;97.40
921;DHT22;447;51.332;6.778;2023-07-31T14:26:43;21.40;97.30
921;DHT22;447;51.332;6.778;2023-07-31T14:29:09;21.40;97.30
921;DHT22;447;51.332;6.778;2023-07-31T14:31:36;21.40;97.30
921;DHT22;447;51.332;6.778;2023-07-31T14:34:02;21.40;97.20
921;DHT22;447;51.332;6.778;2023-07-31T14:36:31;21.40;97.20
921;DHT22;447;51.332;6.778;2023-07-31T14:38:59;21.40;97.30
921;DHT22;447;51.332;6.778;2023-07-31T14:41:25;21.40;97.10
921;DHT22;447;51.332;6.778;2023-07-31T14:43:51;21.40;97.20
921;DHT22;447;51.332;6.778;2023-07-31T14:46:22;21.40;97.20
921;DHT22;447;51.332;6.778;2023-07-31T14:48:48;21.40;97.30
921;DHT22;447;51.332;6.778;2023-07-31T14:51:14;21.40;97.20
921;DHT22;447;51.332;6.778;2023-07-31T14:53:42;21.40;97.30
921;DHT22;447;51.332;6.778;2023-07-31T14:56:08;21.40;97.30
921;DHT22;447;51.332;6.778;2023-07-31T14:58:34;21.40;97.20
921;DHT22;447;51.332;6.778;2023-07-31T15:01:01;21.40;97.20
921;DHT22;447;51.332;6.778;2023-07-31T15:03:27;21.40;97.10
921;DHT22;447;51.332;6.778;2023-07-31T15:05:53;21.30;97.20
921;DHT22;447;51.332;6.778;2023-07-31T15:08:22;21.40;97.20
921;DHT22;447;51.332;6.778;2023-07-31T15:10:49;21.40;97.20
921;DHT22;447;51.332;6.778;2023-07-31T15:13:15;21.40;97.20
921;DHT22;447;51.332;6.778;2023-07-31T15:15:41;21.40;97.20
921;DHT22;447;51.332;6.778;2023-07-31T15:18:12;21.40;97.20
921;DHT22;447;51.332;6.778;2023-07-31T15:20:38;21.40;97.20
921;DHT22;447;51.332;6.778;2023-07-31T15:23:03;21.40;97.10
921;DHT22;447;51.332;6.778;2023-07-31T15:25:30;21.40;97.10
921;DHT22;447;51.332;6.778;2023-07-31T15:27:56;21.40;97.10
921;DHT22;447;51.332;6.778;2023-07-31T15:30:22;21.40;97.10
921;DHT22;447;51.332;6.778;2023-07-31T15:32:52;21.40;97.00
921;DHT22;447;51.332;6.778;2023-07-31T15:35:22;21.40;97.10
921;DHT22;447;51.332;6.778;2023-07-31T15:37:50;21.30;97.00
921;DHT22;447;51.332;6.778;2023-07-31T15:40:19;21.40;97.10
921;DHT22;447;51.332;6.778;2023-07-31T15:42:45;21.40;97.10
921;DHT22;447;51.332;6.778;2023-07-31T15:45:11;21.40;97.10
921;DHT22;447;51.332;6.778;2023-07-31T15:47:42;21.40;97.00
921;DHT22;447;51.332;6.778;2023-07-31T15:50:08;21.40;97.00
921;DHT22;447;51.332;6.778;2023-07-31T15:52:34;21.40;97.10
921;DHT22;447;51.332;6.778;2023-07-31T15:55:04;21.40;97.20
921;DHT22;447;51.332;6.778;2023-07-31T15:57:30;21.40;97.30
921;DHT22;447;51.332;6.778;2023-07-31T16:00:01;21.30;97.30
921;DHT22;447;51.332;6.778;2023-07-31T16:02:36;21.40;97.50
921;DHT22;447;51.332;6.778;2023-07-31T16:05:03;21.40;97.60
921;DHT22;447;51.332;6.778;2023-07-31T16:07:30;21.30;97.60
921;DHT22;447;51.332;6.778;2023-07-31T16:09:58;21.40;97.50
921;DHT22;447;51.332;6.778;2023-07-31T16:12:29;21.30;97.50
921;DHT22;447;51.332;6.778;2023-07-31T16:15:02;21.30;97.50
921;DHT22;447;51.332;6.778;2023-07-31T16:17:28;21.30;97.40
921;DHT22;447;51.332;6.778;2023-07-31T16:19:59;21.30;97.40
921;DHT22;447;51.332;6.778;2023-07-31T16:22:25;21.30;97.40
921;DHT22;447;51.332;6.778;2023-07-31T16:24:51;21.30;97.30
921;DHT22;447;51.332;6.778;2023-07-31T16:27:17;21.30;97.40
921;DHT22;447;51.332;6.778;2023-07-31T16:29:48;21.40;97.40
921;DHT22;447;51.332;6.778;2023-07-31T16:32:15;21.40;97.40
921;DHT22;447;51.332;6.778;2023-07-31T16:34:40;21.30;97.40
921;DHT22;447;51.332;6.778;2023-07-31T16:37:09;21.30;97.50
921;DHT22;447;51.332;6.778;2023-07-31T16:39:37;21.30;97.40
921;DHT22;447;51.332;6.778;2023-07-31T16:42:04;21.30;97.50
921;DHT22;447;51.332;6.778;2023-07-31T16:44:31;21.30;97.50
921;DHT22;447;51.332;6.778;2023-07-31T16:46:57;21.30;97.60
921;DHT22;447;51.332;6.778;2023-07-31T16:49:27;21.30;97.60
921;DHT22;447;51.332;6.778;2023-07-31T16:51:54;21.30;97.70
921;DHT22;447;51.332;6.778;2023-07-31T16:54:23;21.30;97.60
921;DHT22;447;51.332;6.778;2023-07-31T16:56:51;21.30;97.60